Time;durP1;ratioP1;P1;durP2;ratioP2;P2;SDS_P1;SDS_P2;PMS_P1;PMS_P2;Temp;Humidity;BMP_temperature;BMP_pressure;BME280_temperature;BME280_humidity;BME280_pressure;Samples;Min_cycle;Max_cycle;Signal;HPM_P1;HPM_P2
2021/07/05 00:01:42;;;;;;;0.80;0.70;;;16.10;99.90;;;;;;4960151;28;20285;-78
2021/07/05 00:04:08;;;;;;;1.13;0.70;;;16.10;99.90;;;;;;4958480;29;20926;-79
2021/07/05 00:06:34;;;;;;;0.83;0.70;;;16.20;99.90;;;;;;4949856;29;20413;-78
2021/07/05 00:08:59;;;;;;;1.07;0.80;;;16.20;99.90;;;;;;4942482;29;20415;-78
2021/07/05 00:11:25;;;;;;;0.90;0.70;;;16.10;99.90;;;;;;4957689;29;20182;-78
2021/07/05 00:13:51;;;;;;;0.80;0.70;;;16.20;99.90;;;;;;4941151;29;20253;-79
2021/07/05 00:16:17;;;;;;;1.03;0.93;;;16.20;99.90;;;;;;4956726;29;20178;-78
2021/07/05 00:18:42;;;;;;;1.27;0.93;;;16.20;99.90;;;;;;4953873;29;20194;-78
2021/07/05 00:21:08;;;;;;;1.00;0.80;;;16.10;99.90;;;;;;4953954;28;20481;-78
2021/07/05 00:23:33;;;;;;;0.90;0.73;;;16.20;99.90;;;;;;4959704;28;20190;-79
2021/07/05 00:25:59;;;;;;;0.70;0.60;;;16.10;99.90;;;;;;4954491;28;20182;-78
2021/07/05 00:28:25;;;;;;;0.70;0.60;;;16.10;99.90;;;;;;4950955;28;20273;-78
2021/07/05 00:30:50;;;;;;;0.80;0.77;;;16.00;99.90;;;;;;4960454;28;20258;-78
2021/07/05 00:33:16;;;;;;;0.73;0.53;;;16.10;99.90;;;;;;4958467;28;20182;-79
2021/07/05 00:35:41;;;;;;;2.07;1.03;;;16.00;99.90;;;;;;4959251;28;20667;-78
2021/07/05 00:38:07;;;;;;;0.70;0.50;;;16.00;99.90;;;;;;4960935;29;20189;-78
2021/07/05 00:40:33;;;;;;;0.70;0.50;;;16.00;99.90;;;;;;4978057;28;20205;-78
2021/07/05 00:42:59;;;;;;;1.00;0.77;;;16.00;99.90;;;;;;4959535;29;20205;-78
2021/07/05 00:45:27;;;;;;;0.80;0.70;;;16.10;99.90;;;;;;4958539;28;20815;-78
2021/07/05 00:47:52;;;;;;;1.20;0.60;;;16.00;99.90;;;;;;4953203;28;20265;-78
2021/07/05 00:50:20;;;;;;;1.53;0.90;;;16.00;99.90;;;;;;4960051;28;20549;-78
2021/07/05 00:52:50;;;;;;;1.03;0.60;;;16.00;99.90;;;;;;4954025;28;20183;-78
2021/07/05 00:55:15;;;;;;;0.70;0.60;;;16.00;99.90;;;;;;4954754;28;20438;-78
2021/07/05 00:57:41;;;;;;;0.80;0.60;;;16.00;99.90;;;;;;4959204;29;20445;-78
2021/07/05 01:00:13;;;;;;;0.80;0.60;;;16.00;99.90;;;;;;4954466;29;20213;-79
2021/07/05 01:02:38;;;;;;;2.60;0.70;;;16.00;99.90;;;;;;4952633;29;20481;-79
2021/07/05 01:05:06;;;;;;;0.77;0.63;;;16.00;99.90;;;;;;4954173;29;20438;-79
2021/07/05 01:07:31;;;;;;;0.73;0.63;;;16.00;99.90;;;;;;4953489;29;20174;-78
2021/07/05 01:09:57;;;;;;;1.00;0.60;;;16.00;99.90;;;;;;4957498;29;20596;-79
2021/07/05 01:12:23;;;;;;;0.80;0.70;;;16.00;99.90;;;;;;4957437;28;20186;-79
2021/07/05 01:14:48;;;;;;;1.30;1.03;;;16.00;99.90;;;;;;4948116;28;20445;-78
2021/07/05 01:17:14;;;;;;;2.60;1.37;;;16.10;99.90;;;;;;4956162;29;20182;-78
2021/07/05 01:19:43;;;;;;;1.07;0.77;;;16.00;99.90;;;;;;4961208;28;20217;-78
2021/07/05 01:22:09;;;;;;;0.80;0.67;;;16.10;99.90;;;;;;4954742;28;20567;-79
2021/07/05 01:24:35;;;;;;;1.40;1.30;;;16.10;99.90;;;;;;4959905;28;20441;-79
2021/07/05 01:27:01;;;;;;;0.70;0.60;;;16.00;99.90;;;;;;4958756;28;20935;-79
2021/07/05 01:29:27;;;;;;;0.70;0.60;;;16.00;99.90;;;;;;4957852;29;20206;-78
2021/07/05 01:31:54;;;;;;;0.70;0.50;;;16.10;99.90;;;;;;4955404;29;20647;-78
2021/07/05 01:34:19;;;;;;;4.63;1.67;;;16.10;99.90;;;;;;4957175;28;20189;-79
2021/07/05 01:36:45;;;;;;;0.70;0.57;;;16.10;99.90;;;;;;4958955;28;20421;-78
2021/07/05 01:39:11;;;;;;;1.10;1.00;;;16.10;99.90;;;;;;4958929;28;20212;-78
2021/07/05 01:41:36;;;;;;;0.70;0.50;;;16.10;99.90;;;;;;4958164;28;20676;-78
2021/07/05 01:44:03;;;;;;;0.80;0.70;;;16.00;99.90;;;;;;4962706;28;20219;-78
2021/07/05 01:46:28;;;;;;;0.80;0.80;;;16.10;99.90;;;;;;4956570;28;20637;-79
2021/07/05 01:48:54;;;;;;;0.90;0.60;;;16.10;99.90;;;;;;4961358;28;20443;-78
2021/07/05 01:51:19;;;;;;;0.80;0.60;;;16.10;99.90;;;;;;4958336;28;20197;-78
2021/07/05 01:53:45;;;;;;;10.20;4.03;;;16.10;99.90;;;;;;4957359;28;20217;-78
2021/07/05 01:56:11;;;;;;;2.47;2.20;;;16.10;99.90;;;;;;4959768;28;20194;-78
2021/07/05 01:58:37;;;;;;;0.70;0.50;;;16.10;99.90;;;;;;4954933;29;20201;-78
2021/07/05 02:01:04;;;;;;;1.43;1.33;;;16.10;99.90;;;;;;4956826;28;20496;-78
2021/07/05 02:03:30;;;;;;;0.70;0.50;;;16.00;99.90;;;;;;4958512;28;20457;-78
2021/07/05 02:05:56;;;;;;;2.10;1.90;;;16.00;99.90;;;;;;4959109;28;20446;-79
2021/07/05 02:08:23;;;;;;;0.80;0.70;;;16.00;99.90;;;;;;4964139;28;20197;-78
2021/07/05 02:10:50;;;;;;;0.70;0.60;;;16.00;99.90;;;;;;4962334;28;20449;-79
2021/07/05 02:13:22;;;;;;;0.70;0.50;;;16.00;99.90;;;;;;4969241;28;20422;-79
2021/07/05 02:15:50;;;;;;;0.70;0.50;;;16.10;99.90;;;;;;4958925;28;20512;-78
2021/07/05 02:18:16;;;;;;;0.70;0.60;;;16.10;99.90;;;;;;4957094;28;20449;-78
2021/07/05 02:20:44;;;;;;;1.03;0.93;;;16.10;99.90;;;;;;4953747;28;20844;-78
2021/07/05 02:23:12;;;;;;;0.70;0.70;;;16.10;99.90;;;;;;4959736;28;20437;-78
2021/07/05 02:25:37;;;;;;;0.70;0.50;;;16.00;99.90;;;;;;4965816;28;20470;-77
2021/07/05 02:28:15;;;;;;;0.70;0.50;;;16.00;99.90;;;;;;4963133;28;20860;-79
2021/07/05 02:30:43;;;;;;;0.70;0.50;;;16.10;99.90;;;;;;4957037;29;20198;-78
2021/07/05 02:33:09;;;;;;;1.23;1.13;;;16.10;99.90;;;;;;4956434;28;20564;-78
2021/07/05 02:35:35;;;;;;;0.70;0.50;;;16.10;99.90;;;;;;4957263;29;20437;-78
2021/07/05 02:38:04;;;;;;;0.70;0.50;;;16.10;99.90;;;;;;4959956;28;20178;-78
2021/07/05 02:40:35;;;;;;;0.70;0.50;;;16.00;99.90;;;;;;4960358;28;20465;-78
2021/07/05 02:43:02;;;;;;;0.70;0.50;;;16.10;99.90;;;;;;4973711;28;20458;-78
2021/07/05 02:45:30;;;;;;;0.70;0.50;;;16.10;99.90;;;;;;4958429;28;20430;-79
2021/07/05 02:48:06;;;;;;;0.90;0.70;;;16.10;99.90;;;;;;4958084;29;21043;-78
2021/07/05 02:50:32;;;;;;;0.70;0.60;;;16.10;99.90;;;;;;4964525;29;20429;-79
2021/07/05 02:52:58;;;;;;;0.70;0.50;;;16.20;99.90;;;;;;4961894;29;20433;-79
2021/07/05 02:55:24;;;;;;;1.33;0.90;;;16.20;99.90;;;;;;4962402;29;20194;-80
2021/07/05 02:57:50;;;;;;;1.63;1.53;;;16.30;99.90;;;;;;4964536;29;20425;-79
2021/07/05 03:00:22;;;;;;;2.13;2.00;;;16.30;99.90;;;;;;4963571;29;20194;-79
2021/07/05 03:02:49;;;;;;;0.80;0.80;;;16.30;99.90;;;;;;4952341;29;20462;-79
2021/07/05 03:05:18;;;;;;;0.70;0.50;;;16.30;99.90;;;;;;4959519;28;20438;-78
2021/07/05 03:07:44;;;;;;;1.17;0.67;;;16.30;99.90;;;;;;4966251;29;20426;-79
2021/07/05 03:10:14;;;;;;;0.80;0.60;;;16.30;99.90;;;;;;4963311;28;20442;-78
2021/07/05 03:12:40;;;;;;;1.00;0.70;;;16.40;99.90;;;;;;4970537;28;20434;-78
2021/07/05 03:15:08;;;;;;;2.00;1.90;;;16.40;99.90;;;;;;4957568;28;20457;-78
2021/07/05 03:17:35;;;;;;;0.70;0.50;;;16.40;99.90;;;;;;4957658;28;20422;-78
2021/07/05 03:20:01;;;;;;;0.80;0.60;;;16.50;99.90;;;;;;4951924;29;20474;-78
2021/07/05 03:22:27;;;;;;;0.80;0.80;;;16.50;99.90;;;;;;4953940;29;20470;-79
2021/07/05 03:24:52;;;;;;;0.70;0.50;;;16.50;99.90;;;;;;4952708;29;20437;-79
2021/07/05 03:27:18;;;;;;;1.57;1.47;;;16.50;99.90;;;;;;4957264;28;20182;-79
2021/07/05 03:29:44;;;;;;;1.10;0.70;;;16.50;99.90;;;;;;4954005;28;20206;-79
2021/07/05 03:32:10;;;;;;;0.80;0.70;;;16.50;99.90;;;;;;4953527;29;20190;-79
2021/07/05 03:34:36;;;;;;;0.70;0.50;;;16.60;99.90;;;;;;4956529;28;20185;-79
2021/07/05 03:37:02;;;;;;;1.80;1.00;;;16.60;99.90;;;;;;4955639;28;20437;-79
2021/07/05 03:39:27;;;;;;;1.00;0.80;;;16.60;99.90;;;;;;4950523;28;20915;-79
2021/07/05 03:41:53;;;;;;;0.70;0.60;;;16.70;99.90;;;;;;4956830;28;20209;-78
2021/07/05 03:44:19;;;;;;;0.70;0.50;;;16.70;99.90;;;;;;4955118;28;20652;-79
2021/07/05 03:46:44;;;;;;;0.70;0.50;;;16.70;99.90;;;;;;4955420;28;20434;-79
2021/07/05 03:49:10;;;;;;;1.17;0.70;;;16.70;99.90;;;;;;4958067;28;20198;-78
2021/07/05 03:51:36;;;;;;;0.70;0.57;;;16.70;99.90;;;;;;4959073;29;20182;-78
2021/07/05 03:54:02;;;;;;;0.70;0.70;;;16.80;99.90;;;;;;4972348;28;20178;-78
2021/07/05 03:56:27;;;;;;;0.70;0.50;;;16.70;99.90;;;;;;4951495;28;20206;-79
2021/07/05 03:58:53;;;;;;;0.73;0.60;;;16.70;99.90;;;;;;4954717;29;20450;-77
2021/07/05 04:01:19;;;;;;;4.60;0.77;;;16.60;99.90;;;;;;4961582;28;20269;-79
2021/07/05 04:03:44;;;;;;;0.70;0.50;;;16.60;99.90;;;;;;4960657;28;20254;-79
2021/07/05 04:06:10;;;;;;;0.90;0.67;;;16.50;99.90;;;;;;4957529;29;20182;-78
2021/07/05 04:08:36;;;;;;;0.70;0.50;;;16.50;99.90;;;;;;4966875;28;20185;-79
2021/07/05 04:11:03;;;;;;;0.70;0.50;;;16.50;99.90;;;;;;4955638;28;20226;-78
2021/07/05 04:13:28;;;;;;;0.70;0.50;;;16.50;99.90;;;;;;4952147;28;20202;-78
2021/07/05 04:15:54;;;;;;;0.70;0.50;;;16.50;99.90;;;;;;4962655;28;20516;-78
2021/07/05 04:18:21;;;;;;;0.80;0.80;;;16.50;99.90;;;;;;4949370;28;20237;-78
2021/07/05 04:20:47;;;;;;;0.70;0.60;;;16.50;99.90;;;;;;4945304;29;20811;-78
2021/07/05 04:23:13;;;;;;;0.90;0.60;;;16.40;99.90;;;;;;4954869;28;20484;-78
2021/07/05 04:25:39;;;;;;;0.70;0.50;;;16.30;99.90;;;;;;4959576;28;20441;-78
2021/07/05 04:28:05;;;;;;;0.70;0.50;;;16.30;99.90;;;;;;4959833;28;20240;-78
2021/07/05 04:30:31;;;;;;;0.80;0.80;;;16.30;99.90;;;;;;4956906;28;20689;-78
2021/07/05 04:32:58;;;;;;;0.70;0.50;;;16.30;99.90;;;;;;4958749;29;20439;-79
2021/07/05 04:35:25;;;;;;;0.70;0.50;;;16.30;99.90;;;;;;4960212;28;20233;-78
2021/07/05 04:37:52;;;;;;;0.70;0.50;;;16.30;99.90;;;;;;4965816;28;20610;-79
2021/07/05 04:40:21;;;;;;;4.33;1.13;;;16.30;99.90;;;;;;4967046;28;20827;-78
2021/07/05 04:42:47;;;;;;;0.90;0.70;;;16.30;99.90;;;;;;4984407;28;20461;-79
2021/07/05 04:45:15;;;;;;;0.70;0.50;;;16.30;99.90;;;;;;4969697;28;20501;-78
2021/07/05 04:47:42;;;;;;;0.70;0.50;;;16.20;99.90;;;;;;4962465;29;20448;-78
2021/07/05 04:50:09;;;;;;;0.70;0.60;;;16.20;99.90;;;;;;4966113;28;20464;-78
2021/07/05 04:52:35;;;;;;;0.80;0.60;;;16.20;99.90;;;;;;4964133;29;20473;-78
2021/07/05 04:55:02;;;;;;;0.70;0.50;;;16.20;99.90;;;;;;4964321;29;20444;-77
2021/07/05 04:57:29;;;;;;;0.70;0.50;;;16.20;99.90;;;;;;4962330;28;20465;-79
2021/07/05 04:59:54;;;;;;;0.70;0.53;;;16.20;99.90;;;;;;4966865;28;20480;-78
2021/07/05 05:02:24;;;;;;;1.00;0.60;;;16.20;99.90;;;;;;4963534;28;20457;-79
2021/07/05 05:04:50;;;;;;;0.80;0.73;;;16.20;99.90;;;;;;4964170;29;20178;-78
2021/07/05 05:07:16;;;;;;;0.70;0.50;;;16.20;99.90;;;;;;4963758;29;20465;-79
2021/07/05 05:09:42;;;;;;;0.70;0.50;;;16.20;99.90;;;;;;4964051;28;20492;-78
2021/07/05 05:12:08;;;;;;;0.70;0.50;;;16.30;99.90;;;;;;4968254;28;20578;-77
2021/07/05 05:14:34;;;;;;;0.80;0.50;;;16.30;99.90;;;;;;4970371;28;20430;-78
2021/07/05 05:17:00;;;;;;;0.70;0.50;;;16.40;99.90;;;;;;4961457;28;20442;-77
2021/07/05 05:19:26;;;;;;;0.70;0.50;;;16.50;99.90;;;;;;4968094;28;20474;-79
2021/07/05 05:21:51;;;;;;;0.90;0.70;;;16.50;99.90;;;;;;4966070;29;20194;-79
2021/07/05 05:24:17;;;;;;;0.87;0.87;;;16.60;99.90;;;;;;4966842;28;20194;-78
2021/07/05 05:26:42;;;;;;;0.70;0.50;;;16.60;99.90;;;;;;4964989;28;20186;-79
2021/07/05 05:29:08;;;;;;;0.70;0.50;;;16.60;99.90;;;;;;4967441;28;20706;-79
2021/07/05 05:31:35;;;;;;;2.20;0.70;;;16.70;99.90;;;;;;4966229;28;20207;-79
2021/07/05 05:34:01;;;;;;;0.70;0.50;;;16.70;99.90;;;;;;4966647;29;20186;-78
2021/07/05 05:36:26;;;;;;;0.70;0.50;;;16.70;99.90;;;;;;4959341;28;20485;-77
2021/07/05 05:38:52;;;;;;;0.70;0.50;;;16.80;99.90;;;;;;4967611;29;20187;-78
2021/07/05 05:41:17;;;;;;;0.70;0.50;;;16.80;99.90;;;;;;4965818;28;20304;-79
2021/07/05 05:43:43;;;;;;;0.70;0.50;;;16.80;99.90;;;;;;4967756;28;20214;-79
2021/07/05 05:46:15;;;;;;;0.70;0.50;;;16.90;99.90;;;;;;4963650;29;20185;-79
2021/07/05 05:48:42;;;;;;;0.70;0.50;;;17.00;99.90;;;;;;4965980;28;20962;-79
2021/07/05 05:51:07;;;;;;;0.80;0.77;;;17.00;99.90;;;;;;4966445;28;20450;-79
2021/07/05 05:53:33;;;;;;;1.40;0.90;;;17.10;99.90;;;;;;4965281;28;20500;-78
2021/07/05 05:55:58;;;;;;;0.70;0.50;;;17.10;99.90;;;;;;4965242;28;20182;-77
2021/07/05 05:58:24;;;;;;;0.93;0.60;;;17.20;99.90;;;;;;4962887;28;20186;-79
2021/07/05 06:00:49;;;;;;;0.70;0.50;;;17.20;99.90;;;;;;4965243;28;20230;-79
2021/07/05 06:03:15;;;;;;;0.70;0.50;;;17.30;99.90;;;;;;4960992;28;20217;-78
2021/07/05 06:05:41;;;;;;;0.80;0.80;;;17.40;99.90;;;;;;4959735;28;20178;-79
2021/07/05 06:08:06;;;;;;;0.70;0.60;;;17.40;99.90;;;;;;4959211;28;20273;-79
2021/07/05 06:10:32;;;;;;;0.70;0.50;;;17.50;99.90;;;;;;4959084;29;20261;-79
2021/07/05 06:12:58;;;;;;;0.70;0.50;;;17.50;99.90;;;;;;4951933;29;20261;-79
2021/07/05 06:15:24;;;;;;;1.00;0.90;;;17.50;99.90;;;;;;4955084;29;20189;-79
2021/07/05 06:17:51;;;;;;;0.80;0.70;;;17.60;99.90;;;;;;4957361;29;20182;-79
2021/07/05 06:20:18;;;;;;;0.70;0.50;;;17.70;99.90;;;;;;4966457;28;20460;-79
2021/07/05 06:22:49;;;;;;;0.70;0.50;;;17.70;99.90;;;;;;4959534;28;20464;-78
2021/07/05 06:25:15;;;;;;;0.70;0.50;;;17.80;99.90;;;;;;4960631;28;20430;-79
2021/07/05 06:27:41;;;;;;;1.87;0.60;;;17.90;99.90;;;;;;4965279;28;20434;-79
2021/07/05 06:30:07;;;;;;;0.80;0.70;;;18.10;99.90;;;;;;4967264;28;20850;-79
2021/07/05 06:32:33;;;;;;;0.70;0.50;;;18.20;99.90;;;;;;4965538;28;20762;-79
2021/07/05 06:34:58;;;;;;;0.70;0.50;;;18.20;99.90;;;;;;4964569;29;20473;-79
2021/07/05 06:37:24;;;;;;;0.70;0.50;;;18.20;99.90;;;;;;4956981;29;20678;-77
2021/07/05 06:39:49;;;;;;;1.03;0.60;;;18.40;99.90;;;;;;4964060;28;20205;-79
2021/07/05 06:42:15;;;;;;;0.70;0.50;;;18.50;99.90;;;;;;4964823;28;20238;-79
2021/07/05 06:44:41;;;;;;;0.70;0.50;;;18.50;99.90;;;;;;4950232;29;20659;-79
2021/07/05 06:47:07;;;;;;;0.70;0.50;;;18.60;99.90;;;;;;4956802;28;20187;-78
2021/07/05 06:49:32;;;;;;;0.80;0.60;;;18.70;99.90;;;;;;4963877;28;20194;-78
2021/07/05 06:51:58;;;;;;;0.70;0.50;;;18.70;99.90;;;;;;4964545;28;20660;-79
2021/07/05 06:54:23;;;;;;;1.07;1.07;;;18.70;99.90;;;;;;4962981;28;20189;-80
2021/07/05 06:56:49;;;;;;;0.70;0.50;;;18.80;99.90;;;;;;4966062;28;20182;-78
2021/07/05 06:59:14;;;;;;;1.00;0.87;;;18.80;99.90;;;;;;4953366;28;20211;-78
2021/07/05 07:01:40;;;;;;;0.80;0.70;;;18.90;99.90;;;;;;4961524;28;20277;-80
2021/07/05 07:04:06;;;;;;;0.80;0.70;;;19.00;99.90;;;;;;4963361;29;20185;-79
2021/07/05 07:06:31;;;;;;;0.73;0.60;;;19.10;99.90;;;;;;4957060;28;20179;-80
2021/07/05 07:08:57;;;;;;;1.00;0.70;;;19.30;99.90;;;;;;4957083;28;20186;-79
2021/07/05 07:11:23;;;;;;;1.20;1.00;;;19.50;99.90;;;;;;4959156;29;20171;-79
2021/07/05 07:13:48;;;;;;;0.70;0.60;;;19.40;99.90;;;;;;4953144;29;20265;-80
2021/07/05 07:16:16;;;;;;;0.80;0.60;;;19.40;99.90;;;;;;4955427;29;20193;-80
2021/07/05 07:21:26;;;;;;;0.70;0.50;;;19.40;99.90;;;;;;4956789;29;20473;-80
2021/07/05 07:23:53;;;;;;;0.80;0.70;;;19.40;99.90;;;;;;4958904;28;20427;-79
2021/07/05 07:26:20;;;;;;;0.70;0.50;;;19.30;99.90;;;;;;4953490;29;20190;-80
2021/07/05 07:28:50;;;;;;;0.70;0.57;;;19.40;99.90;;;;;;4960278;28;20460;-78
2021/07/05 07:31:16;;;;;;;1.73;0.70;;;19.40;99.90;;;;;;4944523;29;20887;-79
2021/07/05 07:33:41;;;;;;;0.77;0.67;;;19.30;99.90;;;;;;4956780;29;20461;-78
2021/07/05 07:36:07;;;;;;;0.70;0.50;;;19.50;99.90;;;;;;4953689;29;20182;-80
2021/07/05 07:38:38;;;;;;;0.70;0.50;;;19.60;99.90;;;;;;4960341;28;20186;-79
2021/07/05 07:41:03;;;;;;;0.80;0.70;;;19.80;99.90;;;;;;4962292;28;20205;-80
2021/07/05 07:43:29;;;;;;;0.70;0.50;;;19.90;99.90;;;;;;4963056;29;20422;-80
2021/07/05 07:45:54;;;;;;;2.03;1.90;;;20.10;99.90;;;;;;4962792;29;20182;-79
2021/07/05 07:48:20;;;;;;;0.70;0.60;;;20.40;99.90;;;;;;4961299;28;20188;-79
2021/07/05 07:50:45;;;;;;;0.80;0.70;;;20.50;99.90;;;;;;4962521;29;20194;-78
2021/07/05 07:53:11;;;;;;;0.70;0.50;;;20.60;99.90;;;;;;4960138;28;20186;-78
2021/07/05 07:55:37;;;;;;;0.70;0.60;;;20.70;99.90;;;;;;4962625;28;20250;-78
2021/07/05 07:58:02;;;;;;;0.70;0.60;;;20.60;99.90;;;;;;4973730;28;20186;-79
2021/07/05 08:00:30;;;;;;;0.70;0.60;;;20.60;99.90;;;;;;4949717;28;20784;-80
2021/07/05 08:02:55;;;;;;;0.70;0.50;;;20.60;99.90;;;;;;4958271;29;20210;-79
2021/07/05 08:05:21;;;;;;;0.80;0.60;;;20.70;99.90;;;;;;4964811;28;20444;-80
2021/07/05 08:07:47;;;;;;;0.97;0.60;;;20.70;99.90;;;;;;4962204;29;20189;-80
2021/07/05 08:10:14;;;;;;;0.70;0.50;;;20.60;99.90;;;;;;4956594;29;20202;-78
2021/07/05 08:12:41;;;;;;;0.80;0.70;;;20.60;99.90;;;;;;4962250;28;20194;-79
2021/07/05 08:15:08;;;;;;;0.80;0.70;;;20.60;99.90;;;;;;4961841;28;20441;-80
2021/07/05 08:17:34;;;;;;;0.80;0.60;;;20.50;99.90;;;;;;4957773;29;20519;-81
2021/07/05 08:19:59;;;;;;;1.17;0.87;;;20.40;99.90;;;;;;4955473;28;20985;-81
2021/07/05 08:22:25;;;;;;;0.70;0.50;;;20.50;99.90;;;;;;4951922;28;20292;-79
2021/07/05 08:24:52;;;;;;;0.70;0.60;;;20.40;99.90;;;;;;4953576;29;20186;-78
2021/07/05 08:27:19;;;;;;;1.10;1.00;;;20.30;99.90;;;;;;4952593;28;20213;-83
2021/07/05 08:29:44;;;;;;;0.90;0.70;;;20.20;99.90;;;;;;4950606;29;20449;-82
2021/07/05 08:32:10;;;;;;;0.70;0.50;;;20.30;99.90;;;;;;4952362;29;20528;-83
2021/07/05 08:34:35;;;;;;;0.90;0.70;;;20.30;99.90;;;;;;4957890;28;20178;-83
2021/07/05 08:37:02;;;;;;;0.77;0.63;;;20.40;99.90;;;;;;4958711;28;20193;-79
2021/07/05 08:39:27;;;;;;;0.70;0.50;;;20.50;99.90;;;;;;4959159;28;20220;-78
2021/07/05 08:41:53;;;;;;;0.70;0.50;;;20.60;99.90;;;;;;4962948;29;20454;-78
2021/07/05 08:44:19;;;;;;;0.80;0.70;;;20.70;99.90;;;;;;4960246;28;20185;-78
2021/07/05 08:46:46;;;;;;;1.30;0.93;;;20.70;99.90;;;;;;4960732;28;20192;-78
2021/07/05 08:49:12;;;;;;;0.70;0.50;;;20.80;99.90;;;;;;4957301;28;20699;-78
2021/07/05 08:51:37;;;;;;;0.80;0.60;;;20.70;99.90;;;;;;4957191;28;20439;-78
2021/07/05 08:54:03;;;;;;;0.77;0.63;;;20.80;99.90;;;;;;4961358;28;20484;-78
2021/07/05 08:56:29;;;;;;;0.70;0.60;;;20.90;99.90;;;;;;4955979;28;20237;-76
2021/07/05 08:58:54;;;;;;;1.00;0.90;;;21.00;99.90;;;;;;4954075;28;20194;-76
2021/07/05 09:01:21;;;;;;;1.10;0.97;;;21.10;99.90;;;;;;4946251;28;20218;-76
2021/07/05 09:03:48;;;;;;;0.70;0.60;;;21.10;99.90;;;;;;4953345;29;20210;-76
2021/07/05 09:06:23;;;;;;;0.70;0.50;;;21.10;99.90;;;;;;4951812;29;20436;-76
2021/07/05 09:09:00;;;;;;;0.70;0.50;;;21.00;99.90;;;;;;4953379;29;20456;-76
2021/07/05 09:11:37;;;;;;;0.80;0.60;;;21.00;99.90;;;;;;4945012;28;20795;-76
2021/07/05 09:14:10;;;;;;;0.80;0.60;;;21.10;99.90;;;;;;4944452;29;20504;-76
2021/07/05 09:16:37;;;;;;;0.80;0.60;;;21.10;99.90;;;;;;4949980;29;20496;-76
2021/07/05 09:19:15;;;;;;;0.70;0.57;;;21.00;99.90;;;;;;4952874;28;20453;-76
2021/07/05 09:21:46;;;;;;;0.80;0.70;;;21.10;99.90;;;;;;4941818;29;20462;-76
2021/07/05 09:24:12;;;;;;;0.70;0.50;;;21.30;99.90;;;;;;4946951;29;22008;-76
2021/07/05 09:26:41;;;;;;;0.70;0.53;;;21.40;99.90;;;;;;4951426;29;20881;-77
2021/07/05 09:29:16;;;;;;;0.80;0.70;;;21.50;99.90;;;;;;4952579;28;20444;-76
2021/07/05 09:31:44;;;;;;;0.80;0.60;;;21.50;99.90;;;;;;4954328;28;20440;-77
2021/07/05 09:34:20;;;;;;;2.40;2.20;;;21.60;99.90;;;;;;4952054;28;20441;-76
2021/07/05 09:36:47;;;;;;;0.80;0.60;;;21.60;99.90;;;;;;4949484;28;20468;-76
2021/07/05 09:39:18;;;;;;;2.30;0.70;;;21.70;99.90;;;;;;4941534;28;20463;-76
2021/07/05 09:41:48;;;;;;;0.80;0.60;;;21.70;99.90;;;;;;4945896;29;20453;-77
2021/07/05 09:44:17;;;;;;;0.70;0.60;;;21.90;99.90;;;;;;4952422;28;20501;-76
2021/07/05 09:46:52;;;;;;;0.70;0.50;;;21.90;99.90;;;;;;4951223;28;20434;-77
2021/07/05 09:49:20;;;;;;;0.90;0.60;;;22.00;99.90;;;;;;4941793;29;20450;-76
2021/07/05 09:52:04;;;;;;;0.70;0.50;;;21.90;99.90;;;;;;4943168;29;20442;-76
2021/07/05 09:54:30;;;;;;;0.70;0.50;;;21.90;99.90;;;;;;4954169;28;20437;-76
2021/07/05 09:56:55;;;;;;;0.80;0.60;;;22.00;99.90;;;;;;4951528;28;20977;-76
2021/07/05 09:59:23;;;;;;;0.80;0.70;;;22.20;99.90;;;;;;4937850;28;20207;-77
2021/07/05 10:01:54;;;;;;;1.00;0.60;;;22.40;99.90;;;;;;4953775;28;20224;-76
2021/07/05 10:04:27;;;;;;;0.70;0.50;;;22.40;99.90;;;;;;4952852;28;20453;-76
2021/07/05 10:06:56;;;;;;;0.80;0.70;;;22.40;99.90;;;;;;4936078;29;20811;-76
2021/07/05 10:09:36;;;;;;;1.53;0.60;;;22.50;99.90;;;;;;4948677;29;20457;-77
2021/07/05 10:12:18;;;;;;;0.80;0.60;;;22.60;99.90;;;;;;4951829;29;20445;-76
2021/07/05 10:15:03;;;;;;;0.80;0.60;;;22.70;99.90;;;;;;4963333;28;20942;-77
2021/07/05 10:17:32;;;;;;;0.73;0.50;;;22.70;99.90;;;;;;4954387;28;20429;-77
2021/07/05 10:19:59;;;;;;;0.70;0.60;;;22.80;99.90;;;;;;4955063;28;20460;-76
2021/07/05 10:22:25;;;;;;;1.07;0.97;;;22.80;99.90;;;;;;4944998;28;20462;-76
2021/07/05 10:24:52;;;;;;;0.80;0.60;;;22.60;99.90;;;;;;4938462;29;20445;-76
2021/07/05 10:27:18;;;;;;;0.70;0.60;;;22.60;99.90;;;;;;4951724;29;20468;-76
2021/07/05 10:29:47;;;;;;;1.53;0.87;;;22.60;99.90;;;;;;4947721;28;20449;-77
2021/07/05 10:32:14;;;;;;;0.70;0.50;;;22.70;99.90;;;;;;4952340;28;20482;-76
2021/07/05 10:34:41;;;;;;;0.70;0.50;;;22.80;99.90;;;;;;4951785;28;20910;-76
2021/07/05 10:37:15;;;;;;;0.70;0.60;;;22.70;99.90;;;;;;4948945;28;20438;-76
2021/07/05 10:39:41;;;;;;;0.70;0.50;;;22.70;99.90;;;;;;4943848;29;20497;-76
2021/07/05 10:42:31;;;;;;;0.77;0.60;;;22.80;99.90;;;;;;4954600;28;20469;-76
2021/07/05 10:44:57;;;;;;;0.80;0.53;;;23.00;99.90;;;;;;4951965;28;20437;-76
2021/07/05 10:47:44;;;;;;;0.90;0.80;;;23.20;99.90;;;;;;4952705;28;20440;-77
2021/07/05 10:50:37;;;;;;;0.90;0.63;;;23.40;99.90;;;;;;4940544;28;20452;-76
2021/07/05 10:53:03;;;;;;;1.77;0.90;;;23.40;99.90;;;;;;4949143;29;20437;-76
2021/07/05 10:55:41;;;;;;;0.80;0.50;;;23.60;99.90;;;;;;4961985;28;20421;-76
2021/07/05 10:58:26;;;;;;;0.80;0.50;;;23.50;99.90;;;;;;4952360;28;20440;-77
2021/07/05 11:00:55;;;;;;;0.80;0.60;;;23.50;99.90;;;;;;4940552;29;20520;-76
2021/07/05 11:03:35;;;;;;;0.80;0.60;;;23.70;99.90;;;;;;4954281;28;20499;-76
2021/07/05 11:06:02;;;;;;;0.80;0.60;;;24.00;99.90;;;;;;4943158;29;20429;-76
2021/07/05 11:08:35;;;;;;;1.33;0.70;;;24.20;99.90;;;;;;4952817;28;20426;-76
2021/07/05 11:11:26;;;;;;;1.00;0.63;;;24.50;99.90;;;;;;4953181;29;20480;-75
2021/07/05 11:14:32;;;;;;;0.90;0.60;;;24.80;99.90;;;;;;4951995;28;20429;-76
2021/07/05 11:17:17;;;;;;;0.80;0.50;;;25.10;99.90;;;;;;4954068;28;20418;-77
2021/07/05 11:19:51;;;;;;;0.80;0.70;;;25.00;99.90;;;;;;4953052;29;20484;-75
2021/07/05 11:22:26;;;;;;;0.80;0.60;;;24.80;99.90;;;;;;4953412;29;20839;-76
2021/07/05 11:24:57;;;;;;;0.80;0.60;;;24.70;99.90;;;;;;4952212;28;20994;-77
2021/07/05 11:27:26;;;;;;;1.20;0.60;;;24.60;99.90;;;;;;4950888;29;20422;-76
2021/07/05 11:29:52;;;;;;;0.80;0.60;;;24.50;99.90;;;;;;4953072;29;20476;-77
2021/07/05 11:32:38;;;;;;;0.80;0.70;;;24.50;99.90;;;;;;4951894;29;20478;-77
2021/07/05 11:35:24;;;;;;;0.90;0.60;;;24.30;99.90;;;;;;4938518;29;20422;-76
2021/07/05 11:37:55;;;;;;;2.40;0.70;;;24.20;99.90;;;;;;4951485;29;20433;-76
2021/07/05 11:40:40;;;;;;;0.80;0.60;;;24.30;99.90;;;;;;4942796;28;20454;-77
2021/07/05 11:43:05;;;;;;;0.80;0.50;;;24.10;99.90;;;;;;4955005;29;20861;-76
2021/07/05 11:45:38;;;;;;;0.80;0.63;;;24.00;99.90;;;;;;4957242;28;20421;-76
2021/07/05 11:48:04;;;;;;;0.77;0.57;;;24.00;99.90;;;;;;4943967;29;20183;-76
2021/07/05 11:50:30;;;;;;;0.80;0.50;;;24.10;99.90;;;;;;4938736;29;20450;-77
2021/07/05 11:53:02;;;;;;;0.80;0.60;;;24.00;99.90;;;;;;4955748;29;20189;-76
2021/07/05 11:55:31;;;;;;;0.80;0.60;;;23.90;99.90;;;;;;4957313;28;20432;-77
2021/07/05 11:58:00;;;;;;;0.90;0.60;;;24.00;99.90;;;;;;4953814;29;20434;-76
2021/07/05 12:00:29;;;;;;;0.80;0.60;;;24.00;99.90;;;;;;4955246;29;20499;-76
2021/07/05 12:03:08;;;;;;;0.70;0.57;;;23.90;99.90;;;;;;4944006;28;20517;-76
2021/07/05 12:05:35;;;;;;;3.33;0.97;;;23.80;99.90;;;;;;4941578;28;20845;-76
2021/07/05 12:08:01;;;;;;;2.30;0.60;;;23.90;99.90;;;;;;4955749;28;20425;-76
2021/07/05 12:10:28;;;;;;;1.43;1.13;;;23.70;99.90;;;;;;4954968;28;20442;-76
2021/07/05 12:12:54;;;;;;;0.80;0.50;;;23.80;99.90;;;;;;4956662;28;20178;-76
2021/07/05 12:15:22;;;;;;;1.57;1.43;;;23.70;99.90;;;;;;4954743;29;20485;-76
2021/07/05 12:17:56;;;;;;;0.80;0.60;;;23.80;99.90;;;;;;4956061;28;20179;-76
2021/07/05 12:20:22;;;;;;;0.70;0.50;;;23.70;99.90;;;;;;4948171;28;20467;-75
2021/07/05 12:22:48;;;;;;;0.80;0.73;;;23.80;99.90;;;;;;4946941;29;20461;-76
2021/07/05 12:25:14;;;;;;;0.80;0.60;;;23.80;99.90;;;;;;4954957;29;20433;-76
2021/07/05 12:27:40;;;;;;;0.80;0.60;;;23.70;99.90;;;;;;4956267;29;20166;-76
2021/07/05 12:30:07;;;;;;;1.63;0.60;;;23.70;99.90;;;;;;4956360;29;21018;-76
2021/07/05 12:32:37;;;;;;;0.80;0.60;;;23.70;99.90;;;;;;4950547;28;20185;-76
2021/07/05 12:35:09;;;;;;;0.80;0.60;;;23.70;99.90;;;;;;4956372;28;20459;-76
2021/07/05 12:37:44;;;;;;;0.80;0.50;;;23.50;99.90;;;;;;4953428;29;20462;-75
2021/07/05 12:40:16;;;;;;;0.90;0.70;;;23.50;99.90;;;;;;4940159;29;20444;-76
2021/07/05 12:42:44;;;;;;;0.80;0.60;;;23.50;99.90;;;;;;4949632;29;20516;-76
2021/07/05 12:45:21;;;;;;;0.70;0.50;;;23.30;99.90;;;;;;4954519;28;20472;-76
2021/07/05 12:47:53;;;;;;;0.77;0.53;;;23.20;99.90;;;;;;4956621;28;20425;-78
2021/07/05 12:50:24;;;;;;;0.80;0.70;;;22.90;99.90;;;;;;4940082;28;20974;-76
2021/07/05 12:53:19;;;;;;;0.70;0.50;;;22.80;99.90;;;;;;4969888;28;20434;-77
2021/07/05 12:56:12;;;;;;;1.40;1.27;;;22.70;99.90;;;;;;4954013;28;20446;-76